createdAt,value
2017-02-02T00:00:15.768Z,51.56
2017-02-02T00:01:25.482Z,51.56
2017-02-02T00:02:35.631Z,51.56
2017-02-02T00:03:45.830Z,51.46
2017-02-02T00:04:55.111Z,51.56
2017-02-02T00:06:04.393Z,51.46
2017-02-02T00:07:14.107Z,51.46
2017-02-02T00:08:23.821Z,51.56
2017-02-02T00:09:34.026Z,51.27
2017-02-02T00:10:44.618Z,51.56
2017-02-02T00:11:54.342Z,51.17
2017-02-02T00:13:04.493Z,51.75
2017-02-02T00:14:15.079Z,51.27
2017-02-02T00:15:24.408Z,51.65
2017-02-02T00:16:34.130Z,51.07
2017-02-02T00:17:44.287Z,51.27
2017-02-02T00:18:54.876Z,51.17
2017-02-02T00:20:05.457Z,51.75
2017-02-02T00:21:15.222Z,51.17
2017-02-02T00:22:24.941Z,51.65
2017-02-02T00:23:35.090Z,51.75
2017-02-02T00:24:44.803Z,51.75
2017-02-02T00:25:54.520Z,51.75
2017-02-02T00:27:03.846Z,51.75
2017-02-02T00:28:13.557Z,51.56
2017-02-02T00:29:24.604Z,51.56
2017-02-02T00:30:34.320Z,51.56
2017-02-02T00:31:44.033Z,51.56
2017-02-02T00:32:54.675Z,51.65
2017-02-02T00:34:04.389Z,51.46
2017-02-02T00:35:13.677Z,51.46
2017-02-02T00:36:23.389Z,51.46
2017-02-02T00:37:33.981Z,51.36
2017-02-02T00:38:43.745Z,51.17
2017-02-02T00:39:53.467Z,51.93
2017-02-02T00:41:02.747Z,51.56
2017-02-02T00:42:13.333Z,51.56
2017-02-02T00:43:23.481Z,51.93
2017-02-02T00:44:33.684Z,51.56
2017-02-02T00:45:43.837Z,51.56
2017-02-02T00:46:53.546Z,51.56
2017-02-02T00:48:03.260Z,51.56
2017-02-02T00:49:12.541Z,51.46
2017-02-02T00:50:21.873Z,51.46
2017-02-02T00:51:32.027Z,51.46
2017-02-02T00:52:41.747Z,51.27
2017-02-02T00:53:51.034Z,51.27
2017-02-02T00:55:00.317Z,51.56
2017-02-02T00:56:10.090Z,51.27
2017-02-02T00:57:20.241Z,51.56
2017-02-02T00:58:29.956Z,51.36
2017-02-02T00:59:39.687Z,51.27
2017-02-02T01:00:49.400Z,51.56
2017-02-02T01:01:59.636Z,51.46
2017-02-02T01:03:09.356Z,51.36
2017-02-02T01:04:19.067Z,51.56
2017-02-02T01:05:28.789Z,51.46
2017-02-02T01:06:38.070Z,51.56
2017-02-02T01:07:48.267Z,51.36
2017-02-02T01:08:57.985Z,51.56
2017-02-02T01:10:08.134Z,51.46
2017-02-02T01:11:17.414Z,51.46
2017-02-02T01:12:27.128Z,51.46
2017-02-02T01:13:36.896Z,51.56
2017-02-02T01:14:47.059Z,51.46
2017-02-02T01:15:56.348Z,51.46
2017-02-02T01:17:06.493Z,51.56
2017-02-02T01:18:15.771Z,51.56
2017-02-02T01:19:25.542Z,51.36
2017-02-02T01:20:35.689Z,51.36
2017-02-02T01:21:46.269Z,51.75
2017-02-02T01:22:56.427Z,51.65
2017-02-02T01:24:05.707Z,51.36
2017-02-02T01:25:15.928Z,51.65
2017-02-02T01:26:26.081Z,51.56
2017-02-02T01:27:36.239Z,51.56
2017-02-02T01:28:45.521Z,51.46
2017-02-02T01:29:54.803Z,51.46
2017-02-02T01:31:04.570Z,51.46
2017-02-02T01:32:15.161Z,51.65
2017-02-02T01:33:24.876Z,51.46
2017-02-02T01:34:34.587Z,51.46
2017-02-02T01:35:44.301Z,51.56
2017-02-02T01:36:54.072Z,51.75
2017-02-02T01:38:04.223Z,51.46
2017-02-02T01:39:13.943Z,51.46
2017-02-02T01:40:23.225Z,51.56
2017-02-02T01:41:33.383Z,51.75
2017-02-02T01:42:43.148Z,51.56
2017-02-02T01:43:52.863Z,51.56
2017-02-02T01:45:02.580Z,51.75
2017-02-02T01:46:12.738Z,51.56
2017-02-02T01:47:22.915Z,51.75
2017-02-02T01:48:33.117Z,51.46
2017-02-02T01:49:43.265Z,51.36
2017-02-02T01:50:52.980Z,51.46
2017-02-02T01:52:03.132Z,51.56
2017-02-02T01:53:12.855Z,51.46
2017-02-02T01:54:23.060Z,51.53
2017-02-02T01:55:32.777Z,51.56
2017-02-02T01:56:42.926Z,51.65
2017-02-02T01:57:52.208Z,51.36
2017-02-02T01:59:01.928Z,51.36
2017-02-02T02:00:12.123Z,51.46
2017-02-02T02:01:22.280Z,51.36
2017-02-02T02:02:31.992Z,51.84
2017-02-02T02:03:41.705Z,51.91
2017-02-02T02:04:51.418Z,51.84
2017-02-02T02:06:00.746Z,51.84
2017-02-02T02:07:10.459Z,51.65
2017-02-02T02:08:20.197Z,51.56
2017-02-02T02:09:29.477Z,51.72
2017-02-02T02:10:39.635Z,51.84
2017-02-02T02:11:51.995Z,51.93
2017-02-02T02:13:02.595Z,51.81
2017-02-02T02:14:12.320Z,51.81
2017-02-02T02:15:21.605Z,51.75
2017-02-02T02:16:31.770Z,52.03
2017-02-02T02:17:42.411Z,52.32
2017-02-02T02:18:51.692Z,52.48
2017-02-02T02:20:01.409Z,52.51
2017-02-02T02:21:11.127Z,52.32
2017-02-02T02:22:21.728Z,52.39
2017-02-02T02:23:31.945Z,52.2
2017-02-02T02:24:41.230Z,52.01
2017-02-02T02:25:50.950Z,52.01
2017-02-02T02:27:01.548Z,52.2
2017-02-02T02:28:10.830Z,52.22
2017-02-02T02:29:20.603Z,52.03
2017-02-02T02:30:30.332Z,52.51
2017-02-02T02:31:39.617Z,52.2
2017-02-02T02:32:48.903Z,52.48
2017-02-02T02:33:58.632Z,52.42
2017-02-02T02:35:08.419Z,52.58
2017-02-02T02:36:18.149Z,52.13
2017-02-02T02:37:27.872Z,52.2
2017-02-02T02:38:37.153Z,52.2
2017-02-02T02:39:47.752Z,52.39
2017-02-02T02:40:57.970Z,52.67
2017-02-02T02:42:07.254Z,53.16
2017-02-02T02:43:17.417Z,52.96
2017-02-02T02:44:26.703Z,53.06
2017-02-02T02:45:36.417Z,52.87
2017-02-02T02:46:46.647Z,52.87
2017-02-02T02:47:56.809Z,52.77
2017-02-02T02:49:06.965Z,52.96
2017-02-02T02:50:17.123Z,52.8
2017-02-02T02:51:26.405Z,53.06
2017-02-02T02:52:36.170Z,53.06
2017-02-02T02:53:45.891Z,53.16
2017-02-02T02:54:55.175Z,53.16
2017-02-02T02:56:05.777Z,52.96
2017-02-02T02:57:15.496Z,53.06
2017-02-02T02:58:25.272Z,52.96
2017-02-02T02:59:34.990Z,52.96
2017-02-02T03:00:44.281Z,53.06
2017-02-02T03:01:54.448Z,52.96
2017-02-02T03:03:04.165Z,52.67
2017-02-02T03:04:14.370Z,52.77
2017-02-02T03:05:24.087Z,52.67
2017-02-02T03:06:34.244Z,52.87
2017-02-02T03:07:43.966Z,52.87
2017-02-02T03:08:53.243Z,53.06
2017-02-02T03:10:03.458Z,52.87
2017-02-02T03:11:12.747Z,52.87
2017-02-02T03:12:22.479Z,52.96
2017-02-02T03:13:32.232Z,52.96
2017-02-02T03:14:41.961Z,52.96
2017-02-02T03:15:51.734Z,52.96
2017-02-02T03:17:01.887Z,52.96
2017-02-02T03:18:11.168Z,52.87
2017-02-02T03:19:20.887Z,52.87
2017-02-02T03:20:31.041Z,52.96
2017-02-02T03:21:41.257Z,52.87
2017-02-02T03:22:51.423Z,52.87
2017-02-02T03:24:01.150Z,52.87
2017-02-02T03:25:10.871Z,52.96
2017-02-02T03:26:21.020Z,52.87
2017-02-02T03:27:31.246Z,52.87
2017-02-02T03:28:40.530Z,53.06
2017-02-02T03:29:50.707Z,52.77
2017-02-02T03:30:59.987Z,52.77
2017-02-02T03:32:10.142Z,52.58
2017-02-02T03:33:20.366Z,52.96
2017-02-02T03:34:30.968Z,52.96
2017-02-02T03:35:40.250Z,52.87
2017-02-02T03:36:49.975Z,53.06
2017-02-02T03:37:59.710Z,53.16
2017-02-02T03:39:09.921Z,53.06
2017-02-02T03:40:19.199Z,53.16
2017-02-02T03:41:28.479Z,52.96
2017-02-02T03:42:38.636Z,53.06
2017-02-02T03:43:49.233Z,53.06
2017-02-02T03:44:58.573Z,53.25
2017-02-02T03:46:07.864Z,53.16
2017-02-02T03:47:17.581Z,52.87
2017-02-02T03:48:27.306Z,52.87
2017-02-02T03:49:37.468Z,53.06
2017-02-02T03:50:46.803Z,52.87
2017-02-02T03:51:56.964Z,52.96
2017-02-02T03:53:06.683Z,52.96
2017-02-02T03:54:16.418Z,52.96
2017-02-02T03:55:26.132Z,52.87
2017-02-02T03:56:35.896Z,52.87
2017-02-02T03:57:45.178Z,52.87
2017-02-02T03:58:55.779Z,52.96
2017-02-02T04:00:05.503Z,52.87
2017-02-02T04:01:16.103Z,53.25
2017-02-02T04:02:25.876Z,52.87
2017-02-02T04:03:35.601Z,53.25
2017-02-02T04:04:45.771Z,52.87
2017-02-02T04:05:55.500Z,52.96
2017-02-02T04:07:05.211Z,52.87
2017-02-02T04:08:14.977Z,53.06
2017-02-02T04:09:25.132Z,53.16
2017-02-02T04:10:35.301Z,52.87
2017-02-02T04:11:45.016Z,52.67
2017-02-02T04:12:55.183Z,52.87
2017-02-02T04:14:04.958Z,52.96
2017-02-02T04:15:14.672Z,53.16
2017-02-02T04:16:25.274Z,52.77
2017-02-02T04:17:34.999Z,53.06
2017-02-02T04:18:44.724Z,52.96
2017-02-02T04:19:54.497Z,53.06
2017-02-02T04:21:03.779Z,53.06
2017-02-02T04:22:13.500Z,52.87
2017-02-02T04:23:24.098Z,53.06
2017-02-02T04:24:33.823Z,52.87
2017-02-02T04:25:43.167Z,53.06
2017-02-02T04:26:53.765Z,52.87
2017-02-02T04:28:03.491Z,53.06
2017-02-02T04:29:14.102Z,53.25
2017-02-02T04:30:23.383Z,53.06
2017-02-02T04:31:32.716Z,53.06
2017-02-02T04:32:43.778Z,53.06
2017-02-02T04:33:53.508Z,53.06
2017-02-02T04:35:03.667Z,52.96
2017-02-02T04:36:13.832Z,52.96
2017-02-02T04:37:23.598Z,53.06
2017-02-02T04:38:33.759Z,52.87
2017-02-02T04:39:43.916Z,52.96
2017-02-02T04:40:53.638Z,53.06
2017-02-02T04:42:03.355Z,53.06
2017-02-02T04:43:13.721Z,52.87
2017-02-02T04:44:23.444Z,52.67
2017-02-02T04:45:33.602Z,52.77
2017-02-02T04:46:44.204Z,52.87
2017-02-02T04:47:53.491Z,52.87
2017-02-02T04:49:03.264Z,53.06
2017-02-02T04:50:13.858Z,52.96
2017-02-02T04:51:24.003Z,53.16
2017-02-02T04:52:33.718Z,52.96
2017-02-02T04:53:43.432Z,53.16
2017-02-02T04:54:53.644Z,52.96
2017-02-02T04:56:02.926Z,53.16
2017-02-02T04:57:13.532Z,52.96
2017-02-02T04:58:22.835Z,53.16
2017-02-02T04:59:33.001Z,52.96
2017-02-02T05:00:42.778Z,52.87
2017-02-02T05:01:52.504Z,53.16
2017-02-02T05:03:02.665Z,52.39
2017-02-02T05:04:12.387Z,52.2
2017-02-02T05:05:22.549Z,52.48
2017-02-02T05:06:31.880Z,52.48
2017-02-02T05:07:41.597Z,52.2
2017-02-02T05:08:51.334Z,52.29
2017-02-02T05:10:01.501Z,52.29
2017-02-02T05:11:11.249Z,52.2
2017-02-02T05:12:20.578Z,52.01
2017-02-02T05:13:30.310Z,52.01
2017-02-02T05:14:40.028Z,52.39
2017-02-02T05:15:49.312Z,52.29
2017-02-02T05:16:59.481Z,52.2
2017-02-02T05:18:09.453Z,52.2
2017-02-02T05:19:19.185Z,52.58
2017-02-02T05:20:29.795Z,52.48
2017-02-02T05:21:39.522Z,52.39
2017-02-02T05:22:50.125Z,52.1
2017-02-02T05:24:00.330Z,52.1
2017-02-02T05:25:10.051Z,52.2
2017-02-02T05:26:20.653Z,52.01
2017-02-02T05:27:30.365Z,52.1
2017-02-02T05:28:40.093Z,52.2
2017-02-02T05:29:50.752Z,53.25
2017-02-02T05:31:00.917Z,52.77
2017-02-02T05:32:10.199Z,52.87
2017-02-02T05:33:19.923Z,52.96
2017-02-02T05:34:29.642Z,52.87
2017-02-02T05:35:39.413Z,53.06
2017-02-02T05:36:48.698Z,52.77
2017-02-02T05:37:57.980Z,52.87
2017-02-02T05:39:07.265Z,53.06
2017-02-02T05:40:16.997Z,52.96
2017-02-02T05:41:27.655Z,52.96
2017-02-02T05:42:36.933Z,52.96
2017-02-02T05:43:47.090Z,52.87
2017-02-02T05:44:57.248Z,52.96
2017-02-02T05:46:07.854Z,52.77
2017-02-02T05:47:18.949Z,53.06
2017-02-02T05:48:28.233Z,53.16
2017-02-02T05:49:38.388Z,53.06
2017-02-02T05:50:47.665Z,52.39
2017-02-02T05:51:56.945Z,52.1
2017-02-02T05:53:07.169Z,52.29
2017-02-02T05:54:16.461Z,52.39
2017-02-02T05:55:26.180Z,52.1
2017-02-02T05:56:35.908Z,51.91
2017-02-02T05:57:45.194Z,52.29
2017-02-02T05:58:55.852Z,52.29
2017-02-02T06:00:06.448Z,53.25
2017-02-02T06:01:16.174Z,53.06
2017-02-02T06:02:25.899Z,52.96
2017-02-02T06:03:36.057Z,52.67
2017-02-02T06:04:45.387Z,52.87
2017-02-02T06:05:55.112Z,52.87
2017-02-02T06:07:04.841Z,52.87
2017-02-02T06:08:14.121Z,53.25
2017-02-02T06:09:24.722Z,52.46
2017-02-02T06:10:35.369Z,52.1
2017-02-02T06:11:45.538Z,52.48
2017-02-02T06:12:54.821Z,52.46
2017-02-02T06:14:04.540Z,53.34
2017-02-02T06:15:13.850Z,54.02
2017-02-02T06:16:23.630Z,54.21
2017-02-02T06:17:33.337Z,54.59
2017-02-02T06:18:43.489Z,54.97
2017-02-02T06:19:54.089Z,54.78
2017-02-02T06:21:04.679Z,55.07
2017-02-02T06:22:14.449Z,54.88
2017-02-02T06:23:23.729Z,54.88
2017-02-02T06:24:33.895Z,54.59
2017-02-02T06:25:43.178Z,54.59
2017-02-02T06:26:53.769Z,54.68
2017-02-02T06:28:03.983Z,54.02
2017-02-02T06:29:13.310Z,54.11
2017-02-02T06:30:23.904Z,54.49
2017-02-02T06:31:33.612Z,54.21
2017-02-02T06:32:43.767Z,54.11
2017-02-02T06:33:53.532Z,53.82
2017-02-02T06:35:03.696Z,53.82
2017-02-02T06:36:13.410Z,53.82
2017-02-02T06:37:23.136Z,53.44
2017-02-02T06:38:33.729Z,53.63
2017-02-02T06:39:43.494Z,53.44
2017-02-02T06:40:52.778Z,53.16
2017-02-02T06:42:02.068Z,53.06
2017-02-02T06:43:11.805Z,53.25
2017-02-02T06:44:21.090Z,53.22
2017-02-02T06:45:30.574Z,53.32
2017-02-02T06:46:40.739Z,53.06
2017-02-02T06:47:50.030Z,52.94
2017-02-02T06:48:59.315Z,53.22
2017-02-02T06:50:09.033Z,52.96
2017-02-02T06:51:19.241Z,52.77
2017-02-02T06:52:28.971Z,52.84
2017-02-02T06:53:38.700Z,52.84
2017-02-02T06:54:48.852Z,52.94
2017-02-02T06:55:58.573Z,52.94
2017-02-02T06:57:08.338Z,52.84
2017-02-02T06:58:18.497Z,52.75
2017-02-02T06:59:28.224Z,52.87
2017-02-02T07:00:37.945Z,52.17
2017-02-02T07:01:47.668Z,52.08
2017-02-02T07:02:57.882Z,52.26
2017-02-02T07:04:07.171Z,52.46
2017-02-02T07:05:16.454Z,52.17
2017-02-02T07:06:26.178Z,52.46
2017-02-02T07:07:35.916Z,52.26
2017-02-02T07:08:45.687Z,52.17
2017-02-02T07:09:55.414Z,52.46
2017-02-02T07:11:05.585Z,52.26
2017-02-02T07:12:15.306Z,51.98
2017-02-02T07:13:25.475Z,52.26
2017-02-02T07:14:35.244Z,52.08
2017-02-02T07:15:44.966Z,52.46
2017-02-02T07:16:54.244Z,52.36
2017-02-02T07:18:04.408Z,51.98
2017-02-02T07:19:14.552Z,51.98
2017-02-02T07:20:25.195Z,51.98
2017-02-02T07:21:34.929Z,52.26
2017-02-02T07:22:44.640Z,52.17
2017-02-02T07:23:54.371Z,52.39
2017-02-02T07:25:04.086Z,52.08
2017-02-02T07:26:14.733Z,51.79
2017-02-02T07:27:24.018Z,51.98
2017-02-02T07:28:33.739Z,51.89
2017-02-02T07:29:43.449Z,51.7
2017-02-02T07:30:52.733Z,51.81
2017-02-02T07:32:03.387Z,51.79
2017-02-02T07:33:13.112Z,51.72
2017-02-02T07:34:22.392Z,51.91
2017-02-02T07:35:32.104Z,51.98
2017-02-02T07:36:41.827Z,51.79
2017-02-02T07:37:51.164Z,51.72
2017-02-02T07:39:00.884Z,51.81
2017-02-02T07:40:10.163Z,51.81
2017-02-02T07:41:20.768Z,51.81
2017-02-02T07:42:30.914Z,51.91
2017-02-02T07:43:40.690Z,51.62
2017-02-02T07:44:49.978Z,51.6
2017-02-02T07:46:00.136Z,51.81
2017-02-02T07:47:09.851Z,51.72
2017-02-02T07:48:20.011Z,51.53
2017-02-02T07:49:29.783Z,51.34
2017-02-02T07:50:39.509Z,51.43
2017-02-02T07:51:49.653Z,51.34
2017-02-02T07:52:59.377Z,51.24
2017-02-02T07:54:09.093Z,51.24
2017-02-02T07:55:18.862Z,51.5
2017-02-02T07:56:29.026Z,51.43
2017-02-02T07:57:40.061Z,51.72
2017-02-02T07:58:49.341Z,51.43
2017-02-02T07:59:59.066Z,51.72
2017-02-02T08:01:08.843Z,51.7
2017-02-02T08:02:19.001Z,51.34
2017-02-02T08:03:29.161Z,50.76
2017-02-02T08:04:38.911Z,51.05
2017-02-02T08:05:48.201Z,50.86
2017-02-02T08:06:57.538Z,50.76
2017-02-02T08:08:06.819Z,50.67
2017-02-02T08:09:16.108Z,50.57
2017-02-02T08:10:25.398Z,50.48
2017-02-02T08:11:35.114Z,50.57
2017-02-02T08:12:45.332Z,50.76
2017-02-02T08:13:55.045Z,50.67
2017-02-02T08:15:04.775Z,50.57
2017-02-02T08:16:14.059Z,50.67
2017-02-02T08:17:23.355Z,50.67
2017-02-02T08:18:33.570Z,50.57
2017-02-02T08:19:43.723Z,50.57
2017-02-02T08:20:53.450Z,50.57
2017-02-02T08:22:02.734Z,50.57
2017-02-02T08:23:12.454Z,50.57
2017-02-02T08:24:21.783Z,50.57
2017-02-02T08:25:31.061Z,50.76
2017-02-02T08:26:40.342Z,50.48
2017-02-02T08:27:50.505Z,50.76
2017-02-02T08:29:00.659Z,50.86
2017-02-02T08:30:10.870Z,50.67
2017-02-02T08:31:21.027Z,50.57
2017-02-02T08:32:30.320Z,50.57
2017-02-02T08:33:40.915Z,50.67
2017-02-02T08:34:51.078Z,50.76
2017-02-02T08:36:00.415Z,50.57
2017-02-02T08:37:09.696Z,51.05
2017-02-02T08:38:19.426Z,50.86
2017-02-02T08:39:29.581Z,50.86
2017-02-02T08:40:39.307Z,50.67
2017-02-02T08:41:49.075Z,50.67
2017-02-02T08:42:58.794Z,50.57
2017-02-02T08:44:08.955Z,50.57
2017-02-02T08:45:18.673Z,50.76
2017-02-02T08:46:27.954Z,50.57
2017-02-02T08:47:37.734Z,50.76
2017-02-02T08:48:47.020Z,50.67
2017-02-02T08:49:56.301Z,50.19
2017-02-02T08:51:06.463Z,50.48
2017-02-02T08:52:16.190Z,50.38
2017-02-02T08:53:26.393Z,50.09
2017-02-02T08:54:35.734Z,50.19
2017-02-02T08:55:45.891Z,49.62
2017-02-02T08:56:56.093Z,49.62
2017-02-02T08:58:06.258Z,50
2017-02-02T08:59:16.026Z,49.9
2017-02-02T09:00:25.320Z,50
2017-02-02T09:01:35.048Z,49.43
2017-02-02T09:02:44.334Z,49.23
2017-02-02T09:03:54.927Z,49.62
2017-02-02T09:05:04.707Z,49.23
2017-02-02T09:06:13.998Z,49.23
2017-02-02T09:07:23.726Z,49.04
2017-02-02T09:08:33.456Z,49.04
2017-02-02T09:09:43.168Z,48.66
2017-02-02T09:10:52.942Z,48.47
2017-02-02T09:12:02.655Z,48.47
2017-02-02T09:13:12.813Z,48.47
2017-02-02T09:14:22.534Z,48.66
2017-02-02T09:15:32.267Z,48.39
2017-02-02T09:16:42.480Z,48.28
2017-02-02T09:17:53.073Z,48.28
2017-02-02T09:19:03.677Z,48.38
2017-02-02T09:20:13.839Z,48.11
2017-02-02T09:21:24.005Z,48.09
2017-02-02T09:22:33.773Z,48.28
2017-02-02T09:23:43.053Z,47.8
2017-02-02T09:24:52.776Z,48.21
2017-02-02T09:26:02.501Z,48.11
2017-02-02T09:27:12.228Z,48.02
2017-02-02T09:28:22.434Z,48.3
2017-02-02T09:29:32.601Z,48.28
2017-02-02T09:30:41.881Z,48.21
2017-02-02T09:31:51.615Z,48.3
2017-02-02T09:33:00.898Z,48.28
2017-02-02T09:34:10.767Z,48.21
2017-02-02T09:35:20.488Z,48.28
2017-02-02T09:36:30.651Z,48.38
2017-02-02T09:37:40.019Z,48.09
2017-02-02T09:38:50.191Z,47.99
2017-02-02T09:40:00.398Z,48.09
2017-02-02T09:41:10.128Z,48.18
2017-02-02T09:42:19.432Z,47.99
2017-02-02T09:43:28.721Z,47.99
2017-02-02T09:44:38.012Z,48.09
2017-02-02T09:45:47.350Z,47.89
2017-02-02T09:46:57.081Z,47.32
2017-02-02T09:48:06.834Z,47.44
2017-02-02T09:49:16.116Z,47.32
2017-02-02T09:50:26.288Z,47.42
2017-02-02T09:51:36.969Z,47.61
2017-02-02T09:52:47.136Z,47.53
2017-02-02T09:53:56.424Z,47.44
2017-02-02T09:55:06.157Z,47.32
2017-02-02T09:56:15.443Z,47.32
2017-02-02T09:57:24.786Z,47.32
2017-02-02T09:58:34.941Z,47.23
2017-02-02T09:59:45.555Z,47.23
2017-02-02T10:00:55.279Z,47.61
2017-02-02T10:02:05.000Z,47.71
2017-02-02T10:03:14.336Z,47.61
2017-02-02T10:04:24.497Z,47.73
2017-02-02T10:05:34.223Z,47.13
2017-02-02T10:06:43.943Z,47.42
2017-02-02T10:07:53.673Z,47.32
2017-02-02T10:09:03.887Z,47.13
2017-02-02T10:10:14.057Z,47.42
2017-02-02T10:11:23.380Z,47.16
2017-02-02T10:12:33.103Z,47.71
2017-02-02T10:13:42.828Z,46.94
2017-02-02T10:14:52.165Z,47.23
2017-02-02T10:16:02.326Z,46.94
2017-02-02T10:17:12.050Z,47.63
2017-02-02T10:18:22.211Z,46.96
2017-02-02T10:19:31.933Z,46.96
2017-02-02T10:20:41.703Z,46.87
2017-02-02T10:21:50.986Z,47.16
2017-02-02T10:23:00.707Z,47.16
2017-02-02T10:24:10.430Z,46.96
2017-02-02T10:25:20.159Z,46.67
2017-02-02T10:26:29.593Z,46.77
2017-02-02T10:27:39.314Z,46.87
2017-02-02T10:28:49.046Z,46.96
2017-02-02T10:29:58.328Z,47.06
2017-02-02T10:31:08.044Z,46.77
2017-02-02T10:32:18.258Z,46.58
2017-02-02T10:33:27.988Z,46.39
2017-02-02T10:34:38.148Z,46.48
2017-02-02T10:35:47.869Z,46.48
2017-02-02T10:36:57.182Z,46.67
2017-02-02T10:38:06.991Z,46.39
2017-02-02T10:39:16.712Z,46.58
2017-02-02T10:40:26.869Z,46.48
2017-02-02T10:41:36.601Z,46.67
2017-02-02T10:42:46.769Z,46.61
2017-02-02T10:43:56.542Z,46.39
2017-02-02T10:45:06.268Z,46.58
2017-02-02T10:46:15.561Z,46.58
2017-02-02T10:47:25.734Z,46.61
2017-02-02T10:48:35.020Z,46.7
2017-02-02T10:49:45.693Z,46.61
2017-02-02T10:50:54.984Z,46.8
2017-02-02T10:52:04.271Z,46.03
2017-02-02T10:53:13.993Z,46.03
2017-02-02T10:54:23.710Z,46.61
2017-02-02T10:55:33.516Z,46.22
2017-02-02T10:56:43.680Z,46.22
2017-02-02T10:57:52.965Z,46.03
2017-02-02T10:59:02.245Z,45.94
2017-02-02T11:00:11.999Z,45.84
2017-02-02T11:01:21.780Z,45.84
2017-02-02T11:02:31.509Z,46.03
2017-02-02T11:03:41.659Z,45.84
2017-02-02T11:04:51.812Z,45.36
2017-02-02T11:06:01.531Z,45.74
2017-02-02T11:07:11.314Z,45.65
2017-02-02T11:08:21.050Z,45.94
2017-02-02T11:09:30.773Z,45.74
2017-02-02T11:10:40.062Z,45.45
2017-02-02T11:11:49.787Z,45.65
2017-02-02T11:12:59.133Z,45.65
2017-02-02T11:14:08.858Z,45.45
2017-02-02T11:15:18.143Z,45.65
2017-02-02T11:16:27.869Z,45.36
2017-02-02T11:17:38.047Z,45.65
2017-02-02T11:18:47.416Z,45.55
2017-02-02T11:19:57.139Z,45.65
2017-02-02T11:21:06.864Z,45.45
2017-02-02T11:22:16.153Z,45.45
2017-02-02T11:23:25.441Z,45.65
2017-02-02T11:24:35.847Z,45.45
2017-02-02T11:25:45.601Z,45.55
2017-02-02T11:26:55.663Z,45.65
2017-02-02T11:28:07.538Z,45.36
2017-02-02T11:29:20.876Z,45.55
2017-02-02T11:30:34.640Z,45.57
2017-02-02T11:31:47.325Z,45.57
2017-02-02T11:32:59.318Z,45.29
2017-02-02T11:34:11.846Z,45.29
2017-02-02T11:35:23.529Z,45.57
2017-02-02T11:36:36.358Z,45.38
2017-02-02T11:37:49.992Z,45.48
2017-02-02T11:39:04.360Z,45.69
2017-02-02T11:40:16.806Z,45.59
2017-02-02T11:41:29.788Z,45.59
2017-02-02T11:42:41.801Z,45.89
2017-02-02T11:43:54.181Z,45.79
2017-02-02T11:45:06.755Z,45.69
2017-02-02T11:46:18.972Z,46.08
2017-02-02T11:47:31.373Z,46.26
2017-02-02T11:48:44.183Z,45.79
2017-02-02T11:49:55.173Z,46.26
2017-02-02T11:51:05.770Z,46.08
2017-02-02T11:52:17.662Z,45.59
2017-02-02T11:53:28.599Z,45.89
2017-02-02T11:54:39.046Z,45.89
2017-02-02T11:55:50.654Z,46.26
2017-02-02T11:57:02.205Z,45.98
2017-02-02T11:58:13.086Z,46.19
2017-02-02T11:59:23.506Z,46.58
2017-02-02T12:00:33.716Z,46.29
2017-02-02T12:01:43.331Z,46.86
2017-02-02T12:02:57.667Z,46.77
2017-02-02T12:04:07.882Z,46.86
2017-02-02T12:05:18.053Z,46.77
2017-02-02T12:06:33.094Z,46.58
2017-02-02T12:07:49.363Z,46.58
2017-02-02T12:08:58.661Z,46.67
2017-02-02T12:10:08.008Z,46.77
2017-02-02T12:11:18.183Z,46.67
2017-02-02T12:12:27.476Z,46.77
2017-02-02T12:13:38.233Z,46.67
2017-02-02T12:14:48.274Z,46.6
2017-02-02T12:15:57.992Z,46.79
2017-02-02T12:17:07.275Z,46.89
2017-02-02T12:18:17.622Z,46.22
2017-02-02T12:19:27.194Z,46.89
2017-02-02T12:20:36.751Z,46.79
2017-02-02T12:21:46.678Z,46.89
2017-02-02T12:22:55.967Z,46.79
2017-02-02T12:24:05.691Z,46.89
2017-02-02T12:25:14.980Z,46.41
2017-02-02T12:26:24.638Z,46.22
2017-02-02T12:27:33.953Z,46.31
2017-02-02T12:28:43.413Z,46.31
2017-02-02T12:29:52.706Z,46.12
2017-02-02T12:31:02.853Z,46.34
2017-02-02T12:32:13.130Z,46.6
2017-02-02T12:33:23.082Z,46.05
2017-02-02T12:34:33.041Z,45.95
2017-02-02T12:35:42.859Z,46.34
2017-02-02T12:36:52.145Z,46.14
2017-02-02T12:38:01.604Z,45.86
2017-02-02T12:39:11.931Z,45.67
2017-02-02T12:40:22.096Z,46.05
2017-02-02T12:41:31.481Z,45.86
2017-02-02T12:42:41.645Z,45.86
2017-02-02T12:43:51.875Z,45.86
2017-02-02T12:45:02.034Z,45.95
2017-02-02T12:46:12.243Z,45.47
2017-02-02T12:47:21.535Z,45.47
2017-02-02T12:48:31.257Z,45.57
2017-02-02T12:49:40.614Z,45.68
2017-02-02T12:50:50.254Z,45.37
2017-02-02T12:51:59.727Z,45.59
2017-02-02T12:53:09.625Z,45.59
2017-02-02T12:54:18.909Z,45.59
2017-02-02T12:55:29.260Z,45.59
2017-02-02T12:56:39.865Z,45.59
2017-02-02T12:57:50.305Z,45.68
2017-02-02T12:59:01.551Z,45.5
2017-02-02T13:00:12.300Z,45.3
2017-02-02T13:01:21.834Z,45.4
2017-02-02T13:02:31.873Z,45.5
2017-02-02T13:03:42.510Z,45.68
2017-02-02T13:04:53.194Z,45.5
2017-02-02T13:06:03.026Z,45.68
2017-02-02T13:07:12.808Z,45.4
2017-02-02T13:08:22.541Z,45.5
2017-02-02T13:09:32.417Z,45.4
2017-02-02T13:10:43.167Z,45.4
2017-02-02T13:11:52.461Z,45.61
2017-02-02T13:13:01.810Z,45.32
2017-02-02T13:14:11.538Z,45.71
2017-02-02T13:15:21.512Z,45.61
2017-02-02T13:16:31.725Z,45.71
2017-02-02T13:17:41.894Z,45.61
2017-02-02T13:18:52.119Z,45.52
2017-02-02T13:20:01.852Z,45.04
2017-02-02T13:21:12.467Z,45.23
2017-02-02T13:22:26.782Z,45.32
2017-02-02T13:23:38.478Z,45.14
2017-02-02T13:24:50.531Z,44.84
2017-02-02T13:26:04.303Z,44.94
2017-02-02T13:27:17.386Z,45.04
2017-02-02T13:28:30.504Z,44.94
2017-02-02T13:29:43.693Z,45.15
2017-02-02T13:30:56.294Z,44.96
2017-02-02T13:32:09.444Z,45.15
2017-02-02T13:33:21.309Z,44.87
2017-02-02T13:34:35.555Z,45.06
2017-02-02T13:35:47.227Z,44.87
2017-02-02T13:36:59.084Z,44.87
2017-02-02T13:38:11.737Z,44.87
2017-02-02T13:39:22.270Z,45.15
2017-02-02T13:40:32.801Z,45.25
2017-02-02T13:41:42.140Z,45.25
2017-02-02T13:42:53.208Z,45.06
2017-02-02T13:44:02.944Z,44.68
2017-02-02T13:45:12.674Z,44.48
2017-02-02T13:46:22.291Z,44.77
2017-02-02T13:47:32.077Z,44.29
2017-02-02T13:48:41.373Z,44.58
2017-02-02T13:49:52.639Z,44.77
2017-02-02T13:51:02.372Z,44.2
2017-02-02T13:52:12.098Z,44.22
2017-02-02T13:53:21.880Z,44.29
2017-02-02T13:54:31.642Z,44.22
2017-02-02T13:55:42.581Z,44.31
2017-02-02T13:56:52.319Z,44.38
2017-02-02T13:58:01.612Z,44.51
2017-02-02T13:59:12.264Z,44.51
2017-02-02T14:00:21.994Z,44.6
2017-02-02T14:01:31.292Z,44.7
2017-02-02T14:02:41.460Z,44.22
2017-02-02T14:03:50.761Z,44.6
2017-02-02T14:05:00.623Z,44.22
2017-02-02T14:06:11.001Z,44.41
2017-02-02T14:07:20.728Z,44.41
2017-02-02T14:08:30.876Z,44.22
2017-02-02T14:09:41.747Z,44.31
2017-02-02T14:10:51.520Z,44.41
2017-02-02T14:12:01.905Z,44.12
2017-02-02T14:13:11.623Z,44.02
2017-02-02T14:14:21.372Z,44.22
2017-02-02T14:15:31.721Z,44.12
2017-02-02T14:16:42.021Z,44.22
2017-02-02T14:17:51.930Z,44.22
2017-02-02T14:19:01.217Z,44.12
2017-02-02T14:20:10.950Z,44.12
2017-02-02T14:21:20.243Z,44.22
2017-02-02T14:22:29.585Z,44.22
2017-02-02T14:23:38.888Z,44.02
2017-02-02T14:24:49.929Z,44.12
2017-02-02T14:25:59.411Z,44.12
2017-02-02T14:27:09.129Z,44.22
2017-02-02T14:28:19.001Z,44.24
2017-02-02T14:29:28.295Z,44.02
2017-02-02T14:30:38.021Z,44.14
2017-02-02T14:31:47.752Z,44.14
2017-02-02T14:32:58.353Z,44.22
2017-02-02T14:34:08.132Z,44.31
2017-02-02T14:35:17.867Z,44.43
2017-02-02T14:36:28.609Z,44.34
2017-02-02T14:37:38.344Z,44.22
2017-02-02T14:38:48.141Z,44.31
2017-02-02T14:39:58.450Z,44.43
2017-02-02T14:41:08.651Z,44.34
2017-02-02T14:42:17.939Z,44.51
2017-02-02T14:43:27.666Z,44.34
2017-02-02T14:44:36.959Z,44.53
2017-02-02T14:45:46.952Z,44.53
2017-02-02T14:46:56.700Z,44.43
2017-02-02T14:48:05.995Z,44.43
2017-02-02T14:49:15.291Z,44.34
2017-02-02T14:50:24.586Z,44.43
2017-02-02T14:51:33.931Z,44.53
2017-02-02T14:52:44.549Z,44.53
2017-02-02T14:53:54.843Z,44.62
2017-02-02T14:55:04.663Z,44.53
2017-02-02T14:56:14.290Z,44.53
2017-02-02T14:57:24.289Z,44.53
2017-02-02T14:58:34.475Z,44.43
2017-02-02T14:59:43.773Z,44.34
2017-02-02T15:00:53.516Z,44.53
2017-02-02T15:02:04.127Z,44.34
2017-02-02T15:03:13.470Z,44.53